createdAt,value
2018-07-24T00:01:27.300Z,5.23
2018-07-24T00:03:55.323Z,4.75
2018-07-24T00:06:23.635Z,5.10
2018-07-24T00:08:51.953Z,4.90
2018-07-24T00:11:19.907Z,4.90
2018-07-24T00:13:47.918Z,5.30
2018-07-24T00:16:16.124Z,5.03
2018-07-24T00:18:44.059Z,5.25
2018-07-24T00:21:12.210Z,5.28
2018-07-24T00:23:40.119Z,5.80
2018-07-24T00:26:08.326Z,5.57
2018-07-24T00:28:36.272Z,5.47
2018-07-24T00:31:05.409Z,5.33
2018-07-24T00:33:33.647Z,5.80
2018-07-24T00:36:01.751Z,5.30
2018-07-24T00:38:29.740Z,5.20
2018-07-24T00:40:57.717Z,5.72
2018-07-24T00:43:25.693Z,6.47
2018-07-24T00:45:53.895Z,5.95
2018-07-24T00:48:21.839Z,5.27
2018-07-24T00:50:49.928Z,5.60
2018-07-24T00:53:18.440Z,5.58
2018-07-24T00:55:46.379Z,5.97
2018-07-24T00:58:14.333Z,5.50
2018-07-24T01:00:42.289Z,5.85
2018-07-24T01:03:10.292Z,5.50
2018-07-24T01:05:38.272Z,6.27
2018-07-24T01:08:06.235Z,6.17
2018-07-24T01:10:34.167Z,6.30
2018-07-24T01:13:02.106Z,6.08
2018-07-24T01:15:30.041Z,5.67
2018-07-24T01:17:58.436Z,5.70
2018-07-24T01:20:28.469Z,5.30
2018-07-24T01:22:56.553Z,5.70
2018-07-24T01:25:24.452Z,5.90
2018-07-24T01:27:52.701Z,5.70
2018-07-24T01:30:20.692Z,5.40
2018-07-24T01:32:49.022Z,5.30
2018-07-24T01:35:16.929Z,5.50
2018-07-24T01:37:44.891Z,5.60
2018-07-24T01:40:13.088Z,5.95
2018-07-24T01:42:41.748Z,5.90
2018-07-24T01:45:09.748Z,6.10
2018-07-24T01:47:37.961Z,5.95
2018-07-24T01:50:06.557Z,6.40
2018-07-24T01:52:34.594Z,6.20
2018-07-24T01:55:02.557Z,5.83
2018-07-24T01:57:30.551Z,5.60
2018-07-24T01:59:58.719Z,5.60
2018-07-24T02:02:26.914Z,6.15
2018-07-24T02:04:55.184Z,5.90
2018-07-24T02:07:23.132Z,5.78
2018-07-24T02:09:51.370Z,6.00
2018-07-24T02:12:19.300Z,5.53
2018-07-24T02:14:47.228Z,5.60
2018-07-24T02:17:15.240Z,6.20
2018-07-24T02:19:43.788Z,5.90
2018-07-24T02:22:11.724Z,5.72
2018-07-24T02:24:39.669Z,6.00
2018-07-24T02:27:07.741Z,6.17
2018-07-24T02:29:35.667Z,6.08
2018-07-24T02:32:03.661Z,6.10
2018-07-24T02:34:32.406Z,6.25
2018-07-24T02:37:00.389Z,5.80
2018-07-24T02:39:28.289Z,6.13
2018-07-24T02:41:56.752Z,6.15
2018-07-24T02:44:24.684Z,6.50
2018-07-24T02:46:52.875Z,5.85
2018-07-24T02:49:20.840Z,5.90
2018-07-24T02:51:48.782Z,6.00
2018-07-24T02:54:17.070Z,6.03
2018-07-24T02:56:45.346Z,5.90
2018-07-24T02:59:13.338Z,5.90
2018-07-24T03:01:41.628Z,6.00
2018-07-24T03:04:09.848Z,5.75
2018-07-24T03:06:37.826Z,6.50
2018-07-24T03:09:07.841Z,5.50
2018-07-24T03:11:35.732Z,5.80
2018-07-24T03:14:03.708Z,5.90
2018-07-24T03:16:31.629Z,6.08
2018-07-24T03:18:59.608Z,5.78
2018-07-24T03:21:27.809Z,6.30
2018-07-24T03:23:56.041Z,5.93
2018-07-24T03:26:24.041Z,5.97
2018-07-24T03:28:52.097Z,6.30
2018-07-24T03:31:20.242Z,6.00
2018-07-24T03:33:48.473Z,5.97
2018-07-24T03:36:16.465Z,6.12
2018-07-24T03:38:44.722Z,5.90
2018-07-24T03:41:12.904Z,6.53
2018-07-24T03:43:40.872Z,5.80
2018-07-24T03:46:08.846Z,6.37
2018-07-24T03:48:36.878Z,5.90
2018-07-24T03:51:05.105Z,5.97
2018-07-24T03:53:33.569Z,5.97
2018-07-24T03:56:01.517Z,5.83
2018-07-24T03:58:29.764Z,6.20
2018-07-24T04:00:58.026Z,6.22
2018-07-24T04:03:26.570Z,6.20
2018-07-24T04:05:55.253Z,5.78
2018-07-24T04:08:23.187Z,5.67
2018-07-24T04:10:51.448Z,5.60
2018-07-24T04:13:19.736Z,6.20
2018-07-24T04:15:47.685Z,6.17
2018-07-24T04:18:15.628Z,5.97
2018-07-24T04:20:43.577Z,5.62
2018-07-24T04:23:11.772Z,5.85
2018-07-24T04:25:39.681Z,6.00
2018-07-24T04:28:08.218Z,5.60
2018-07-24T04:30:36.425Z,5.50
2018-07-24T04:33:04.592Z,6.30
2018-07-24T04:35:32.837Z,5.40
2018-07-24T04:38:00.773Z,6.95
2018-07-24T04:40:29.020Z,5.60
2018-07-24T04:42:57.004Z,5.78
2018-07-24T04:45:24.957Z,6.00
2018-07-24T04:47:52.930Z,5.67
2018-07-24T04:50:21.375Z,5.47
2018-07-24T04:52:49.290Z,5.20
2018-07-24T04:55:17.459Z,5.47
2018-07-24T04:57:45.405Z,5.17
2018-07-24T05:00:13.364Z,5.00
2018-07-24T05:02:42.174Z,5.30
2018-07-24T05:05:10.141Z,4.80
2018-07-24T05:07:38.390Z,5.22
2018-07-24T05:10:06.334Z,5.10
2018-07-24T05:12:34.609Z,5.22
2018-07-24T05:15:02.578Z,5.00
2018-07-24T05:17:30.832Z,4.70
2018-07-24T05:19:59.133Z,4.90
2018-07-24T05:22:27.636Z,4.70
2018-07-24T05:24:55.615Z,4.67
2018-07-24T05:27:23.880Z,4.97
2018-07-24T05:29:51.901Z,4.50
2018-07-24T05:32:20.189Z,4.13
2018-07-24T05:34:48.823Z,4.63
2018-07-24T05:37:16.742Z,4.90
2018-07-24T05:39:45.037Z,4.60
2018-07-24T05:42:13.268Z,4.70
2018-07-24T05:44:41.500Z,4.90
2018-07-24T05:47:09.829Z,4.10
2018-07-24T05:49:37.813Z,4.60
2018-07-24T05:52:06.276Z,3.90
2018-07-24T05:54:34.294Z,4.50
2018-07-24T05:57:02.282Z,4.50
2018-07-24T05:59:30.833Z,4.25
2018-07-24T06:01:58.876Z,4.30
2018-07-24T06:04:27.089Z,4.30
2018-07-24T06:06:55.092Z,3.70
2018-07-24T06:09:23.085Z,4.85
2018-07-24T06:11:51.060Z,3.40
2018-07-24T06:14:19.048Z,3.58
2018-07-24T06:16:47.181Z,3.80
2018-07-24T06:19:15.169Z,3.62
2018-07-24T06:21:43.112Z,3.42
2018-07-24T06:24:11.316Z,3.70
2018-07-24T06:26:39.502Z,3.70
2018-07-24T06:29:07.671Z,3.60
2018-07-24T06:31:35.604Z,4.07
2018-07-24T06:34:03.641Z,3.37
2018-07-24T06:36:31.581Z,3.52
2018-07-24T06:38:59.800Z,3.45
2018-07-24T06:41:27.840Z,3.40
2018-07-24T06:43:55.772Z,3.30
2018-07-24T06:46:23.712Z,3.20
2018-07-24T06:48:52.000Z,3.62
2018-07-24T06:51:20.094Z,4.97
2018-07-24T06:53:48.209Z,4.27
2018-07-24T06:56:16.132Z,3.53
2018-07-24T06:58:44.457Z,3.22
2018-07-24T07:01:12.712Z,3.47
2018-07-24T07:03:40.944Z,3.80
2018-07-24T07:06:09.189Z,3.72
2018-07-24T07:08:37.396Z,3.40
2018-07-24T07:11:05.653Z,3.40
2018-07-24T07:13:34.755Z,3.72
2018-07-24T07:16:02.989Z,3.37
2018-07-24T07:18:30.892Z,3.00
2018-07-24T07:20:58.881Z,3.10
2018-07-24T07:23:27.095Z,2.77
2018-07-24T07:25:55.292Z,2.90
2018-07-24T07:28:23.544Z,3.00
2018-07-24T07:30:51.468Z,3.20
2018-07-24T07:33:19.433Z,3.00
2018-07-24T07:35:47.489Z,3.00
2018-07-24T07:38:15.480Z,2.90
2018-07-24T07:40:43.773Z,3.20
2018-07-24T07:43:11.722Z,3.00
2018-07-24T07:45:39.683Z,4.20
2018-07-24T07:48:08.292Z,3.37
2018-07-24T07:50:36.282Z,3.10
2018-07-24T07:53:04.208Z,3.52
2018-07-24T07:55:32.185Z,3.07
2018-07-24T07:58:00.146Z,3.20
2018-07-24T08:00:28.140Z,3.10
2018-07-24T08:02:56.074Z,3.10
2018-07-24T08:05:24.190Z,3.15
2018-07-24T08:07:52.265Z,3.42
2018-07-24T08:10:20.949Z,3.50
2018-07-24T08:12:49.129Z,3.00
2018-07-24T08:15:17.277Z,3.30
2018-07-24T08:17:46.204Z,3.00
2018-07-24T08:20:14.674Z,3.30
2018-07-24T08:22:42.854Z,2.97
2018-07-24T08:25:10.920Z,3.10
2018-07-24T08:27:39.365Z,3.12
2018-07-24T08:30:07.431Z,3.10
2018-07-24T08:32:35.562Z,3.95
2018-07-24T08:35:03.651Z,3.00
2018-07-24T08:37:31.786Z,3.20
2018-07-24T08:39:59.881Z,3.20
2018-07-24T08:42:28.466Z,2.85
2018-07-24T08:44:56.646Z,3.40
2018-07-24T08:47:24.645Z,3.50
2018-07-24T08:49:52.886Z,2.95
2018-07-24T08:52:21.346Z,3.40
2018-07-24T08:54:49.967Z,3.42
2018-07-24T08:57:17.942Z,3.10
2018-07-24T08:59:45.948Z,3.00
2018-07-24T09:02:14.786Z,3.13
2018-07-24T09:04:43.646Z,3.35
2018-07-24T09:07:12.714Z,4.00
2018-07-24T09:09:40.929Z,2.90
2018-07-24T09:12:09.262Z,3.27
2018-07-24T09:14:37.389Z,2.60
2018-07-24T09:17:05.544Z,2.90
2018-07-24T09:19:33.757Z,2.80
2018-07-24T09:22:02.081Z,2.90
2018-07-24T09:24:30.558Z,2.67
2018-07-24T09:26:58.709Z,2.50
2018-07-24T09:29:26.806Z,3.30
2018-07-24T09:31:54.835Z,3.00
2018-07-24T09:34:22.950Z,3.00
2018-07-24T09:36:53.085Z,2.87
2018-07-24T09:39:35.392Z,3.20
2018-07-24T09:42:08.836Z,2.98
2018-07-24T09:44:43.288Z,2.80
2018-07-24T09:47:12.407Z,3.00
2018-07-24T09:49:40.722Z,2.45
2018-07-24T09:52:08.791Z,2.30
2018-07-24T09:54:36.874Z,2.37
2018-07-24T09:57:05.186Z,2.50
2018-07-24T09:59:33.233Z,2.40
2018-07-24T10:02:01.301Z,2.85
2018-07-24T10:04:29.851Z,2.60
2018-07-24T10:06:58.217Z,2.70
2018-07-24T10:09:26.572Z,2.58
2018-07-24T10:11:54.670Z,2.37
2018-07-24T10:14:22.958Z,2.20
2018-07-24T10:16:51.054Z,2.75
2018-07-24T10:19:19.389Z,2.65
2018-07-24T10:21:48.055Z,2.40
2018-07-24T10:24:16.087Z,2.77
2018-07-24T10:26:44.443Z,2.12
2018-07-24T10:29:12.720Z,2.00
2018-07-24T10:31:40.762Z,2.30
2018-07-24T10:34:09.179Z,2.60
2018-07-24T10:36:37.210Z,2.27
2018-07-24T10:39:07.475Z,2.30
2018-07-24T10:41:35.557Z,2.20
2018-07-24T10:44:03.702Z,1.92
2018-07-24T10:46:31.997Z,2.40
2018-07-24T10:49:00.109Z,2.30
2018-07-24T10:51:28.117Z,2.20
2018-07-24T10:53:56.178Z,2.10
2018-07-24T10:56:24.247Z,2.47
2018-07-24T10:58:52.473Z,2.10
2018-07-24T11:01:21.140Z,2.30
2018-07-24T11:03:49.625Z,2.47
2018-07-24T11:06:18.618Z,2.12
2018-07-24T11:08:46.960Z,2.00
2018-07-24T11:11:15.444Z,2.10
2018-07-24T11:13:43.543Z,2.10
2018-07-24T11:16:11.933Z,2.40
2018-07-24T11:18:40.610Z,2.20
2018-07-24T11:21:08.907Z,2.10
2018-07-24T11:23:37.094Z,2.30
2018-07-24T11:26:05.229Z,2.00
2018-07-24T11:28:33.539Z,2.10
2018-07-24T11:31:01.517Z,1.95
2018-07-24T11:33:29.558Z,1.72
2018-07-24T11:35:58.283Z,1.80
2018-07-24T11:40:21.135Z,2.00
2018-07-24T11:42:49.285Z,2.00
2018-07-24T11:45:17.483Z,1.95
2018-07-24T11:47:45.953Z,1.80
2018-07-24T11:50:13.984Z,1.98
2018-07-24T11:52:42.670Z,1.95
2018-07-24T11:55:11.446Z,1.90
2018-07-24T11:57:40.118Z,1.87
2018-07-24T12:00:08.254Z,2.03
2018-07-24T12:02:36.713Z,1.90
2018-07-24T12:05:04.948Z,1.85
2018-07-24T12:07:33.201Z,1.80
2018-07-24T12:10:01.377Z,2.10
2018-07-24T12:12:29.718Z,2.00
2018-07-24T12:14:57.897Z,1.62
2018-07-24T12:17:26.091Z,2.00
2018-07-24T12:19:54.564Z,2.10
2018-07-24T12:22:22.630Z,2.10
2018-07-24T12:24:51.006Z,1.70
2018-07-24T12:27:19.537Z,1.90
2018-07-24T12:29:48.098Z,1.90
2018-07-24T12:32:16.202Z,2.12
2018-07-24T12:34:44.274Z,2.00
2018-07-24T12:37:12.825Z,1.70
2018-07-24T12:39:41.169Z,1.60
2018-07-24T12:42:09.228Z,1.70
2018-07-24T12:44:37.945Z,1.60
2018-07-24T12:47:06.494Z,1.70
2018-07-24T12:49:34.664Z,1.60
2018-07-24T12:52:03.083Z,1.60
2018-07-24T12:54:31.146Z,1.45
2018-07-24T12:56:59.245Z,1.70
2018-07-24T12:59:27.557Z,1.50
2018-07-24T13:01:55.589Z,1.90
2018-07-24T13:04:23.975Z,1.75
2018-07-24T13:06:52.335Z,2.00
2018-07-24T13:09:20.394Z,1.70
2018-07-24T13:11:49.094Z,2.10
2018-07-24T13:14:17.115Z,2.67
2018-07-24T13:16:45.224Z,2.40
2018-07-24T13:19:13.498Z,1.83
2018-07-24T13:21:41.618Z,1.70
2018-07-24T13:24:09.961Z,2.10
2018-07-24T13:26:38.285Z,1.80
2018-07-24T13:29:06.403Z,1.67
2018-07-24T13:31:34.819Z,1.62
2018-07-24T13:34:03.013Z,1.70
2018-07-24T13:36:31.354Z,1.90
2018-07-24T13:38:59.555Z,1.40
2018-07-24T13:41:27.768Z,1.80
2018-07-24T13:43:56.488Z,2.20
2018-07-24T13:46:24.961Z,1.60
2018-07-24T13:48:53.223Z,1.60
2018-07-24T13:51:21.725Z,1.60
2018-07-24T13:53:50.019Z,2.33
2018-07-24T13:56:18.212Z,1.80
2018-07-24T13:58:46.353Z,2.00
2018-07-24T14:01:14.625Z,1.80
2018-07-24T14:03:42.965Z,1.70
2018-07-24T14:06:11.526Z,1.50
2018-07-24T14:08:39.898Z,1.70
2018-07-24T14:11:07.993Z,1.50
2018-07-24T14:13:36.131Z,1.50
2018-07-24T14:16:04.253Z,2.22
2018-07-24T14:18:32.559Z,2.10
2018-07-24T14:21:00.623Z,1.50
2018-07-24T14:23:28.755Z,1.75
2018-07-24T14:25:56.851Z,2.02
2018-07-24T14:28:25.272Z,1.70
2018-07-24T14:30:53.378Z,1.40
2018-07-24T14:33:21.482Z,1.70
2018-07-24T14:35:49.588Z,1.50
2018-07-24T14:38:18.074Z,1.40
2018-07-24T14:40:46.382Z,1.57
2018-07-24T14:43:14.397Z,1.50
2018-07-24T14:45:42.442Z,1.60
2018-07-24T14:48:10.483Z,1.30
2018-07-24T14:50:39.041Z,1.40
2018-07-24T14:53:07.346Z,1.50
2018-07-24T14:55:35.711Z,1.40
2018-07-24T14:58:03.809Z,1.40
2018-07-24T15:00:32.253Z,1.40
2018-07-24T15:03:00.540Z,1.50
2018-07-24T15:05:28.677Z,1.50
2018-07-24T15:07:57.046Z,1.92
2018-07-24T15:10:25.367Z,1.32
2018-07-24T15:12:53.634Z,1.50
2018-07-24T15:15:21.647Z,1.82
2018-07-24T15:17:49.780Z,1.30
2018-07-24T15:20:18.265Z,1.80
2018-07-24T15:22:46.405Z,2.10
2018-07-24T15:25:15.043Z,1.35
2018-07-24T15:27:43.599Z,1.40
2018-07-24T15:30:11.878Z,1.45
2018-07-24T15:32:40.261Z,1.50
2018-07-24T15:35:09.126Z,2.10
2018-07-24T15:37:37.321Z,1.90
2018-07-24T15:40:05.906Z,1.60
2018-07-24T15:42:34.362Z,1.90
2018-07-24T15:45:03.418Z,1.80
2018-07-24T15:47:31.830Z,2.08
2018-07-24T15:50:00.271Z,1.50
2018-07-24T15:52:28.758Z,1.80
2018-07-24T15:54:57.381Z,2.20
2018-07-24T15:57:26.517Z,1.60
2018-07-24T15:59:54.689Z,1.70
2018-07-24T16:02:23.115Z,2.10
2018-07-24T16:04:51.233Z,2.40
2018-07-24T16:07:19.306Z,1.75
2018-07-24T16:09:48.007Z,2.70
2018-07-24T16:12:16.042Z,1.50
2018-07-24T16:14:44.118Z,2.00
2018-07-24T16:17:12.550Z,1.55
2018-07-24T16:19:41.074Z,1.85
2018-07-24T16:22:09.489Z,1.75
2018-07-24T16:24:38.269Z,1.75
2018-07-24T16:27:06.313Z,1.63
2018-07-24T16:29:34.427Z,1.60
2018-07-24T16:32:04.664Z,1.90
2018-07-24T16:34:34.315Z,1.70
2018-07-24T16:37:03.685Z,1.50
2018-07-24T16:39:33.591Z,1.47
2018-07-24T16:42:02.494Z,1.92
2018-07-24T16:44:31.923Z,2.08
2018-07-24T16:47:00.449Z,1.90
2018-07-24T16:49:28.627Z,1.90
2018-07-24T16:51:57.165Z,1.80
2018-07-24T16:54:26.173Z,1.90
2018-07-24T16:56:54.199Z,2.00
2018-07-24T16:59:23.157Z,2.40
2018-07-24T17:01:52.458Z,2.30
2018-07-24T17:04:21.324Z,1.80
2018-07-24T17:06:50.281Z,2.00
2018-07-24T17:09:18.822Z,1.70
2018-07-24T17:11:49.403Z,1.98
2018-07-24T17:14:24.479Z,1.90
2018-07-24T17:16:58.284Z,1.70
2018-07-24T17:19:27.647Z,1.80
2018-07-24T17:21:57.165Z,1.40
2018-07-24T17:24:27.020Z,1.90
2018-07-24T17:26:56.621Z,2.20
2018-07-24T17:29:24.753Z,2.30
2018-07-24T17:31:52.829Z,1.75
2018-07-24T17:34:20.872Z,2.30
2018-07-24T17:36:48.948Z,1.72
2018-07-24T17:39:17.016Z,1.92
2018-07-24T17:41:45.505Z,1.80
2018-07-24T17:44:13.488Z,1.60
2018-07-24T17:46:41.556Z,1.92
2018-07-24T17:49:09.630Z,1.67
2018-07-24T17:51:37.762Z,1.82
2018-07-24T17:54:06.128Z,1.70
2018-07-24T17:56:34.570Z,1.87
2018-07-24T17:59:02.891Z,1.60
2018-07-24T18:01:31.227Z,1.98
2018-07-24T18:03:59.321Z,1.60
2018-07-24T18:06:27.301Z,1.60
2018-07-24T18:08:55.404Z,1.60
2018-07-24T18:11:23.502Z,1.60
2018-07-24T18:13:51.845Z,1.70
2018-07-24T18:16:20.131Z,1.92
2018-07-24T18:18:48.295Z,1.90
2018-07-24T18:21:16.904Z,1.80
2018-07-24T18:23:45.137Z,2.00
2018-07-24T18:26:13.494Z,1.90
2018-07-24T18:28:42.013Z,2.30
2018-07-24T18:31:10.203Z,2.00
2018-07-24T18:33:38.342Z,1.80
2018-07-24T18:36:06.702Z,1.77
2018-07-24T18:38:34.825Z,1.90
2018-07-24T18:41:03.299Z,2.10
2018-07-24T18:43:31.783Z,1.82
2018-07-24T18:46:00.163Z,1.77
2018-07-24T18:48:28.321Z,1.82
2018-07-24T18:50:56.761Z,2.20
2018-07-24T18:53:25.120Z,1.87
2018-07-24T18:55:53.177Z,1.80
2018-07-24T18:58:21.638Z,1.90
2018-07-24T19:00:50.118Z,1.80
2018-07-24T19:03:18.609Z,1.80
2018-07-24T19:05:47.325Z,2.00
2018-07-24T19:08:15.333Z,1.90
2018-07-24T19:10:43.345Z,2.10
2018-07-24T19:13:11.543Z,2.08
2018-07-24T19:15:40.297Z,1.90
2018-07-24T19:18:08.509Z,1.70
2018-07-24T19:20:37.358Z,1.98
2018-07-24T19:23:05.390Z,1.77
2018-07-24T19:25:33.409Z,1.80
2018-07-24T19:28:01.631Z,1.80
2018-07-24T19:30:29.846Z,1.87
2018-07-24T19:32:58.135Z,2.00
2018-07-24T19:35:26.325Z,1.70
2018-07-24T19:37:54.585Z,2.20
2018-07-24T19:40:23.061Z,2.00
2018-07-24T19:42:52.076Z,1.80
2018-07-24T19:45:20.120Z,1.80
2018-07-24T19:47:48.442Z,2.30
2018-07-24T19:50:16.832Z,2.17
2018-07-24T19:52:45.861Z,2.40
2018-07-24T19:55:14.690Z,2.00
2018-07-24T19:57:43.332Z,1.90
2018-07-24T20:00:12.075Z,1.85
2018-07-24T20:02:41.469Z,1.97
2018-07-24T20:05:10.854Z,1.60
2018-07-24T20:07:39.840Z,1.80
2018-07-24T20:10:09.657Z,1.90
2018-07-24T20:12:38.701Z,1.82
2018-07-24T20:15:08.463Z,1.90
2018-07-24T20:17:39.002Z,2.00
2018-07-24T20:20:09.556Z,1.75
2018-07-24T20:22:39.870Z,2.05
2018-07-24T20:25:09.226Z,1.90
2018-07-24T20:27:38.386Z,1.75
2018-07-24T20:30:07.108Z,1.90
2018-07-24T20:32:36.046Z,2.00
2018-07-24T20:35:05.656Z,2.12
2018-07-24T20:37:34.395Z,2.10
2018-07-24T20:40:02.964Z,1.77
2018-07-24T20:42:31.119Z,1.95
2018-07-24T20:44:59.229Z,1.75
2018-07-24T20:47:27.763Z,1.90
2018-07-24T20:49:56.625Z,2.08
2018-07-24T20:52:25.038Z,1.80
2018-07-24T20:54:54.080Z,1.80
2018-07-24T20:57:22.171Z,1.70
2018-07-24T20:59:50.426Z,1.92
2018-07-24T21:02:18.650Z,1.72
2018-07-24T21:04:46.943Z,2.05
2018-07-24T21:07:15.531Z,1.90
2018-07-24T21:09:43.661Z,1.75
2018-07-24T21:12:11.832Z,2.50
2018-07-24T21:14:40.221Z,2.25
2018-07-24T21:17:08.361Z,2.10
2018-07-24T21:19:36.490Z,2.27
2018-07-24T21:22:04.936Z,1.60
2018-07-24T21:24:33.112Z,2.10
2018-07-24T21:27:01.142Z,1.77
2018-07-24T21:29:29.262Z,1.90
2018-07-24T21:31:57.429Z,2.00
2018-07-24T21:34:25.819Z,1.70
2018-07-24T21:36:54.049Z,1.80
2018-07-24T21:39:22.065Z,1.42
2018-07-24T21:41:50.253Z,1.70
2018-07-24T21:44:19.071Z,2.00
2018-07-24T21:46:47.166Z,1.70
2018-07-24T21:49:15.672Z,1.80
2018-07-24T21:51:44.009Z,1.80
2018-07-24T21:54:12.450Z,1.87
2018-07-24T21:56:40.786Z,1.80
2018-07-24T21:59:08.899Z,1.60
2018-07-24T22:01:37.118Z,1.90
2018-07-24T22:04:06.148Z,1.80
2018-07-24T22:06:35.041Z,2.10
2018-07-24T22:09:04.396Z,1.90
2018-07-24T22:11:33.109Z,1.90
2018-07-24T22:14:03.097Z,1.80
2018-07-24T22:16:31.928Z,1.80
2018-07-24T22:19:00.298Z,2.27
2018-07-24T22:21:29.043Z,2.13
2018-07-24T22:23:57.294Z,2.00
2018-07-24T22:26:25.868Z,1.87
2018-07-24T22:28:54.276Z,2.02
2018-07-24T22:31:23.085Z,1.70
2018-07-24T22:33:52.236Z,2.00
2018-07-24T22:36:20.458Z,1.87
2018-07-24T22:38:48.694Z,1.97
2018-07-24T22:41:16.970Z,1.60
2018-07-24T22:43:45.173Z,1.53
2018-07-24T22:46:13.307Z,1.93
2018-07-24T22:48:41.565Z,1.70
2018-07-24T22:51:09.628Z,1.90
2018-07-24T22:53:38.579Z,1.90
2018-07-24T22:56:06.835Z,2.10
2018-07-24T22:58:35.001Z,1.70
2018-07-24T23:01:03.214Z,1.90
2018-07-24T23:03:31.642Z,1.60
2018-07-24T23:06:00.145Z,1.60
2018-07-24T23:08:28.243Z,1.42
2018-07-24T23:10:56.393Z,1.50
2018-07-24T23:13:24.568Z,1.80
2018-07-24T23:15:53.055Z,1.53
2018-07-24T23:18:21.755Z,1.75
2018-07-24T23:20:49.774Z,1.60
2018-07-24T23:23:17.894Z,1.70
2018-07-24T23:25:46.057Z,1.40
2018-07-24T23:28:14.073Z,1.70
2018-07-24T23:30:42.377Z,2.00
2018-07-24T23:33:10.752Z,1.70
2018-07-24T23:35:39.261Z,1.40
2018-07-24T23:38:07.891Z,1.80
2018-07-24T23:40:36.329Z,2.00
2018-07-24T23:43:05.437Z,1.60
2018-07-24T23:45:33.468Z,1.70
2018-07-24T23:48:01.718Z,1.60
2018-07-24T23:50:30.058Z,1.70
2018-07-24T23:52:58.246Z,1.70
2018-07-24T23:55:26.434Z,1.80
2018-07-24T23:57:54.596Z,1.80
